createdAt,value
2023-05-05T00:01:14.944Z,6.83
2023-05-05T00:03:42.628Z,6.84
2023-05-05T00:06:09.162Z,6.90
2023-05-05T00:08:35.572Z,6.93
2023-05-05T00:11:01.930Z,6.91
2023-05-05T00:13:28.241Z,6.86
2023-05-05T00:15:54.663Z,6.87
2023-05-05T00:18:21.335Z,6.79
2023-05-05T00:20:47.820Z,6.87
2023-05-05T00:23:14.628Z,6.82
2023-05-05T00:25:41.048Z,6.82
2023-05-05T00:28:07.474Z,6.82
2023-05-05T00:30:34.513Z,6.89
2023-05-05T00:33:01.432Z,6.92
2023-05-05T00:35:27.810Z,6.92
2023-05-05T00:37:54.689Z,6.91
2023-05-05T00:40:21.362Z,6.97
2023-05-05T00:42:48.259Z,6.92
2023-05-05T00:45:15.321Z,6.96
2023-05-05T00:47:42.030Z,6.83
2023-05-05T00:50:09.463Z,6.82
2023-05-05T00:52:36.261Z,6.76
2023-05-05T00:55:02.974Z,6.73
2023-05-05T00:57:29.357Z,6.49
2023-05-05T00:59:56.258Z,6.61
2023-05-05T01:02:22.844Z,6.61
2023-05-05T01:04:49.251Z,6.65
2023-05-05T01:07:26.746Z,6.66
2023-05-05T01:10:07.629Z,6.53
2023-05-05T01:12:46.657Z,6.60
2023-05-05T01:15:22.828Z,6.61
2023-05-05T01:17:57.229Z,6.55
2023-05-05T01:20:50.302Z,6.53
2023-05-05T01:23:26.830Z,6.51
2023-05-05T01:25:53.154Z,6.50
2023-05-05T01:28:24.455Z,6.47
2023-05-05T01:31:09.638Z,6.45
2023-05-05T01:33:36.987Z,6.48
2023-05-05T01:36:04.962Z,6.43
2023-05-05T01:38:34.908Z,6.39
2023-05-05T01:41:05.281Z,6.32
2023-05-05T01:43:32.084Z,6.39
2023-05-05T01:45:58.486Z,6.38
2023-05-05T01:48:24.837Z,6.32
2023-05-05T01:50:52.085Z,6.28
2023-05-05T01:53:19.071Z,6.30
2023-05-05T01:55:46.211Z,6.33
2023-05-05T01:58:12.532Z,6.31
2023-05-05T02:00:38.932Z,6.32
2023-05-05T02:03:06.487Z,6.32
2023-05-05T02:05:32.903Z,6.28
2023-05-05T02:08:00.031Z,6.25
2023-05-05T02:10:26.709Z,6.21
2023-05-05T02:12:53.175Z,6.18
2023-05-05T02:15:20.003Z,6.25
2023-05-05T02:17:46.401Z,6.29
2023-05-05T02:20:12.942Z,6.29
2023-05-05T02:22:40.949Z,6.27
2023-05-05T02:25:07.671Z,6.23
2023-05-05T02:27:34.235Z,6.23
2023-05-05T02:30:02.523Z,6.24
2023-05-05T02:32:33.961Z,6.25
2023-05-05T02:35:11.119Z,6.21
2023-05-05T02:37:37.494Z,6.10
2023-05-05T02:40:07.442Z,6.09
2023-05-05T02:42:35.741Z,6.15
2023-05-05T02:45:07.793Z,6.10
2023-05-05T02:47:35.374Z,6.09
2023-05-05T02:50:02.008Z,6.12
2023-05-05T02:52:28.351Z,6.04
2023-05-05T02:54:54.646Z,5.91
2023-05-05T02:57:21.223Z,5.83
2023-05-05T02:59:53.294Z,5.79
2023-05-05T03:02:22.606Z,5.71
2023-05-05T03:04:49.859Z,5.72
2023-05-05T03:07:20.982Z,5.78
2023-05-05T03:09:50.923Z,5.79
2023-05-05T03:12:19.060Z,5.68
2023-05-05T03:14:45.472Z,5.68
2023-05-05T03:17:12.556Z,5.63
2023-05-05T03:19:40.600Z,5.64
2023-05-05T03:22:06.994Z,5.63
2023-05-05T03:24:33.449Z,5.58
2023-05-05T03:26:59.775Z,5.54
2023-05-05T03:29:26.090Z,5.56
2023-05-05T03:31:52.571Z,5.53
2023-05-05T03:34:19.067Z,5.53
2023-05-05T03:37:02.346Z,5.51
2023-05-05T03:39:28.713Z,5.51
2023-05-05T03:41:55.025Z,5.48
2023-05-05T03:44:21.808Z,5.49
2023-05-05T03:46:48.189Z,5.47
2023-05-05T03:49:14.610Z,5.47
2023-05-05T03:51:41.017Z,5.49
2023-05-05T03:54:07.348Z,5.58
2023-05-05T03:56:33.656Z,5.60
2023-05-05T03:59:00.257Z,5.58
2023-05-05T04:01:26.779Z,5.60
2023-05-05T04:03:53.286Z,5.65
2023-05-05T04:06:19.694Z,5.67
2023-05-05T04:08:46.352Z,5.70
2023-05-05T04:11:12.698Z,5.77
2023-05-05T04:13:39.092Z,5.75
2023-05-05T04:16:05.596Z,5.83
2023-05-05T04:18:32.007Z,5.83
2023-05-05T04:20:58.400Z,5.83
2023-05-05T04:23:24.737Z,5.83
2023-05-05T04:25:51.085Z,5.83
2023-05-05T04:28:18.203Z,5.85
2023-05-05T04:30:46.450Z,5.89
2023-05-05T04:33:13.233Z,5.82
2023-05-05T04:35:39.590Z,5.77
2023-05-05T04:38:05.962Z,5.72
2023-05-05T04:40:32.332Z,5.70
2023-05-05T04:42:58.694Z,5.71
2023-05-05T04:45:25.517Z,5.69
2023-05-05T04:47:51.893Z,5.64
2023-05-05T04:50:18.284Z,5.63
2023-05-05T04:52:44.665Z,5.63
2023-05-05T04:55:11.631Z,5.61
2023-05-05T04:57:38.124Z,5.62
2023-05-05T05:00:05.407Z,5.69
2023-05-05T05:02:32.121Z,5.71
2023-05-05T05:04:58.703Z,5.78
2023-05-05T05:07:25.912Z,5.87
2023-05-05T05:09:52.296Z,6.00
2023-05-05T05:12:18.669Z,6.07
2023-05-05T05:14:45.094Z,6.14
2023-05-05T05:17:11.458Z,6.19
2023-05-05T05:19:37.857Z,6.23
2023-05-05T05:22:04.225Z,6.18
2023-05-05T05:24:30.787Z,6.20
2023-05-05T05:26:57.519Z,6.28
2023-05-05T05:29:24.040Z,6.24
2023-05-05T05:31:50.503Z,6.28
2023-05-05T05:34:16.998Z,6.23
2023-05-05T05:36:43.357Z,6.24
2023-05-05T05:39:09.676Z,6.27
2023-05-05T05:41:36.083Z,6.40
2023-05-05T05:44:02.428Z,6.35
2023-05-05T05:46:28.844Z,6.41
2023-05-05T05:48:55.366Z,6.49
2023-05-05T05:51:21.687Z,6.54
2023-05-05T05:53:48.051Z,6.64
2023-05-05T05:56:14.389Z,6.78
2023-05-05T05:58:40.832Z,6.84
2023-05-05T06:01:07.170Z,6.87
2023-05-05T06:03:33.864Z,7.03
2023-05-05T06:06:00.317Z,7.20
2023-05-05T06:08:26.855Z,7.09
2023-05-05T06:10:53.275Z,7.20
2023-05-05T06:13:19.640Z,7.20
2023-05-05T06:15:46.275Z,7.47
2023-05-05T06:18:12.800Z,7.73
2023-05-05T06:20:39.256Z,7.90
2023-05-05T06:23:05.830Z,7.97
2023-05-05T06:25:32.176Z,7.74
2023-05-05T06:27:58.552Z,7.98
2023-05-05T06:30:26.129Z,8.06
2023-05-05T06:32:54.248Z,8.04
2023-05-05T06:35:20.976Z,7.97
2023-05-05T06:37:47.315Z,8.00
2023-05-05T06:40:13.737Z,7.84
2023-05-05T06:42:40.090Z,8.09
2023-05-05T06:45:06.652Z,7.89
2023-05-05T06:47:33.090Z,8.03
2023-05-05T06:49:59.429Z,8.18
2023-05-05T06:52:25.902Z,8.71
2023-05-05T06:54:52.316Z,8.97
2023-05-05T06:57:18.773Z,8.63
2023-05-05T06:59:45.092Z,8.81
2023-05-05T07:02:11.498Z,9.31
2023-05-05T07:04:37.875Z,9.03
2023-05-05T07:07:04.218Z,9.16
2023-05-05T07:09:30.626Z,9.34
2023-05-05T07:11:56.993Z,9.23
2023-05-05T07:14:24.467Z,8.95
2023-05-05T07:16:51.528Z,9.03
2023-05-05T07:19:18.079Z,9.13
2023-05-05T07:21:44.481Z,9.27
2023-05-05T07:24:10.946Z,8.68
2023-05-05T07:26:37.282Z,8.90
2023-05-05T07:29:05.376Z,9.02
2023-05-05T07:31:31.808Z,9.07
2023-05-05T07:33:58.224Z,9.34
2023-05-05T07:36:24.565Z,9.84
2023-05-05T07:38:51.075Z,9.43
2023-05-05T07:41:18.433Z,9.60
2023-05-05T07:43:44.879Z,9.32
2023-05-05T07:46:11.690Z,9.37
2023-05-05T07:48:41.474Z,9.84
2023-05-05T07:51:08.220Z,9.80
2023-05-05T07:53:34.600Z,9.52
2023-05-05T07:56:00.952Z,9.72
2023-05-05T07:58:27.290Z,9.25
2023-05-05T08:00:53.727Z,9.42
2023-05-05T08:03:24.296Z,9.44
2023-05-05T08:05:53.092Z,9.41
2023-05-05T08:08:19.513Z,8.73
2023-05-05T08:10:45.830Z,8.87
2023-05-05T08:13:12.254Z,9.89
2023-05-05T08:15:38.818Z,9.49
2023-05-05T08:18:05.240Z,9.92
2023-05-05T08:20:31.630Z,10.17
2023-05-05T08:22:58.042Z,10.65
2023-05-05T08:25:26.825Z,10.65
2023-05-05T08:27:53.159Z,10.43
2023-05-05T08:30:21.494Z,9.68
2023-05-05T08:32:47.927Z,9.85
2023-05-05T08:35:14.498Z,10.04
2023-05-05T08:37:40.997Z,10.38
2023-05-05T08:40:07.676Z,10.51
2023-05-05T08:42:38.400Z,10.14
2023-05-05T08:45:06.277Z,9.94
2023-05-05T08:47:32.904Z,9.51
2023-05-05T08:49:59.513Z,9.48
2023-05-05T08:52:25.934Z,9.51
2023-05-05T08:54:57.720Z,9.13
2023-05-05T08:57:25.925Z,9.22
2023-05-05T08:59:52.330Z,9.83
2023-05-05T09:02:18.774Z,10.18
2023-05-05T09:04:45.135Z,10.40
2023-05-05T09:07:11.530Z,10.22
2023-05-05T09:09:37.947Z,10.46
2023-05-05T09:12:04.916Z,10.82
2023-05-05T09:14:31.268Z,10.20
2023-05-05T09:16:57.745Z,10.71
2023-05-05T09:19:25.110Z,10.84
2023-05-05T09:21:51.528Z,11.16
2023-05-05T09:24:18.653Z,9.90
2023-05-05T09:26:47.716Z,10.15
2023-05-05T09:29:17.587Z,9.65
2023-05-05T09:31:43.914Z,9.85
2023-05-05T09:34:14.144Z,10.16
2023-05-05T09:36:41.994Z,10.87
2023-05-05T09:39:08.351Z,10.24
2023-05-05T09:41:38.604Z,10.39
2023-05-05T09:44:05.174Z,10.13
2023-05-05T09:46:32.032Z,11.02
2023-05-05T09:49:21.420Z,10.87
2023-05-05T09:51:48.048Z,10.76
2023-05-05T09:54:24.330Z,10.21
2023-05-05T09:56:53.463Z,10.45
2023-05-05T09:59:19.951Z,11.34
2023-05-05T10:01:46.627Z,10.89
2023-05-05T10:04:22.551Z,10.43
2023-05-05T10:06:48.958Z,11.35
2023-05-05T10:09:15.364Z,10.75
2023-05-05T10:11:41.994Z,11.01
2023-05-05T10:14:08.476Z,11.53
2023-05-05T10:16:35.766Z,11.31
2023-05-05T10:19:02.661Z,11.49
2023-05-05T10:21:31.594Z,11.18
2023-05-05T10:23:58.589Z,10.95
2023-05-05T10:26:24.955Z,10.29
2023-05-05T10:28:52.799Z,11.17
2023-05-05T10:31:25.739Z,10.51
2023-05-05T10:33:55.245Z,10.55
2023-05-05T10:36:21.943Z,10.48
2023-05-05T10:38:48.289Z,10.52
2023-05-05T10:41:14.674Z,10.21
2023-05-05T10:43:41.702Z,10.42
2023-05-05T10:46:08.171Z,10.77
2023-05-05T10:48:36.735Z,10.85
2023-05-05T10:51:09.182Z,10.65
2023-05-05T10:53:44.702Z,10.52
2023-05-05T10:56:11.116Z,10.72
2023-05-05T10:58:58.391Z,10.69
2023-05-05T11:01:32.674Z,11.17
2023-05-05T11:04:18.142Z,10.90
2023-05-05T11:07:03.532Z,11.31
2023-05-05T11:09:29.873Z,11.19
2023-05-05T11:12:02.724Z,10.78
2023-05-05T11:14:29.115Z,10.77
2023-05-05T11:16:55.887Z,10.40
2023-05-05T11:19:42.263Z,10.93
2023-05-05T11:22:08.738Z,10.70
2023-05-05T11:24:36.294Z,10.90
2023-05-05T11:27:03.382Z,11.60
2023-05-05T11:29:50.268Z,11.34
2023-05-05T11:32:18.166Z,11.46
2023-05-05T11:34:51.007Z,10.82
2023-05-05T11:37:17.446Z,10.98
2023-05-05T11:39:47.388Z,11.25
2023-05-05T11:42:24.911Z,9.85
2023-05-05T11:44:51.655Z,9.54
2023-05-05T11:47:20.973Z,10.33
2023-05-05T11:49:47.394Z,10.20
2023-05-05T11:52:14.378Z,10.36
2023-05-05T11:54:50.367Z,9.66
2023-05-05T11:57:19.370Z,9.78
2023-05-05T12:00:04.913Z,9.88
2023-05-05T12:02:31.543Z,9.35
2023-05-05T12:04:58.583Z,9.57
2023-05-05T12:07:25.927Z,9.66
2023-05-05T12:09:52.821Z,9.24
2023-05-05T12:12:19.496Z,9.02
2023-05-05T12:14:47.264Z,9.91
2023-05-05T12:17:13.727Z,10.30
2023-05-05T12:19:46.409Z,10.58
2023-05-05T12:22:17.816Z,10.39
2023-05-05T12:24:44.150Z,10.41
2023-05-05T12:27:11.091Z,9.99
2023-05-05T12:29:37.473Z,10.48
2023-05-05T12:32:04.172Z,10.70
2023-05-05T12:34:31.230Z,10.98
2023-05-05T12:36:57.663Z,10.99
2023-05-05T12:39:33.975Z,10.44
2023-05-05T12:42:03.973Z,10.30
2023-05-05T12:44:36.880Z,9.61
2023-05-05T12:47:03.589Z,9.48
2023-05-05T12:49:30.269Z,9.90
2023-05-05T12:51:57.058Z,10.49
2023-05-05T12:54:24.501Z,9.94
2023-05-05T12:56:51.287Z,10.23
2023-05-05T12:59:24.088Z,9.78
2023-05-05T13:01:50.778Z,10.05
2023-05-05T13:04:17.489Z,10.35
2023-05-05T13:06:44.833Z,9.91
2023-05-05T13:09:27.016Z,10.09
2023-05-05T13:11:54.576Z,10.03
2023-05-05T13:14:21.209Z,10.01
2023-05-05T13:16:47.585Z,10.48
2023-05-05T13:19:13.930Z,10.15
2023-05-05T13:21:40.306Z,10.62
2023-05-05T13:24:21.366Z,10.41
2023-05-05T13:26:52.628Z,10.90
2023-05-05T13:29:19.309Z,10.85
2023-05-05T13:31:45.818Z,10.34
2023-05-05T13:34:12.266Z,10.44
2023-05-05T13:36:38.662Z,11.08
2023-05-05T13:39:05.070Z,10.56
2023-05-05T13:41:31.475Z,10.61
2023-05-05T13:43:57.899Z,10.68
2023-05-05T13:46:24.234Z,10.67
2023-05-05T13:48:56.061Z,10.65
2023-05-05T13:51:22.925Z,11.03
2023-05-05T13:53:49.693Z,11.25
2023-05-05T13:56:17.770Z,11.48
2023-05-05T13:58:44.293Z,10.73
2023-05-05T14:01:11.041Z,10.73
2023-05-05T14:03:39.518Z,10.42
2023-05-05T14:06:06.648Z,9.76
2023-05-05T14:08:32.958Z,9.98
2023-05-05T14:10:59.350Z,10.23
2023-05-05T14:13:25.894Z,10.13
2023-05-05T14:15:52.748Z,10.08
2023-05-05T14:18:19.132Z,10.00
2023-05-05T14:20:45.496Z,10.54
2023-05-05T14:23:12.036Z,10.64
2023-05-05T14:25:38.571Z,10.61
2023-05-05T14:28:05.258Z,10.72
2023-05-05T14:30:31.597Z,10.48
2023-05-05T14:32:58.993Z,10.40
2023-05-05T14:35:25.495Z,10.27
2023-05-05T14:37:51.880Z,10.18
2023-05-05T14:40:18.358Z,10.01
2023-05-05T14:42:44.781Z,9.59
2023-05-05T14:45:11.831Z,9.76
2023-05-05T14:47:38.218Z,10.08
2023-05-05T14:50:04.857Z,9.79
2023-05-05T14:52:31.194Z,9.83
2023-05-05T14:54:57.558Z,9.74
2023-05-05T14:57:24.065Z,9.82
2023-05-05T14:59:52.993Z,9.87
2023-05-05T15:02:19.457Z,10.29
2023-05-05T15:04:47.055Z,10.97
2023-05-05T15:07:14.391Z,11.01
2023-05-05T15:09:40.772Z,10.66
2023-05-05T15:12:07.289Z,10.66
2023-05-05T15:14:33.588Z,10.55
2023-05-05T15:16:59.952Z,10.90
2023-05-05T15:19:26.351Z,10.97
2023-05-05T15:21:54.084Z,10.52
2023-05-05T15:24:21.048Z,9.64
2023-05-05T15:26:47.486Z,8.90
2023-05-05T15:29:13.896Z,9.06
2023-05-05T15:31:40.332Z,8.76
2023-05-05T15:34:06.963Z,8.98
2023-05-05T15:36:33.317Z,8.82
2023-05-05T15:39:02.022Z,8.37
2023-05-05T15:41:29.366Z,8.32
2023-05-05T15:43:55.855Z,8.23
2023-05-05T15:46:22.235Z,8.24
2023-05-05T15:48:48.681Z,8.15
2023-05-05T15:51:15.030Z,8.37
2023-05-05T15:53:41.600Z,8.59
2023-05-05T15:56:08.150Z,8.29
2023-05-05T15:58:34.576Z,8.33
2023-05-05T16:01:00.987Z,7.93
2023-05-05T16:03:27.731Z,7.88
2023-05-05T16:05:54.213Z,7.71
2023-05-05T16:08:20.618Z,7.69
2023-05-05T16:10:47.482Z,7.87
2023-05-05T16:13:14.420Z,7.72
2023-05-05T16:15:41.526Z,7.39
2023-05-05T16:18:08.151Z,7.33
2023-05-05T16:20:34.855Z,7.13
2023-05-05T16:23:01.852Z,7.33
2023-05-05T16:25:28.447Z,7.45
2023-05-05T16:27:57.800Z,7.20
2023-05-05T16:30:24.157Z,7.18
2023-05-05T16:32:51.872Z,7.02
2023-05-05T16:35:18.359Z,7.18
2023-05-05T16:37:44.939Z,7.24
2023-05-05T16:40:11.692Z,7.36
2023-05-05T16:42:38.070Z,7.04
2023-05-05T16:45:04.750Z,7.17
2023-05-05T16:47:32.294Z,7.09
2023-05-05T16:49:58.753Z,7.14
2023-05-05T16:52:25.234Z,6.85
2023-05-05T16:54:55.620Z,6.86
2023-05-05T16:57:22.538Z,6.89
2023-05-05T16:59:51.802Z,6.90
2023-05-05T17:02:18.236Z,6.94
2023-05-05T17:04:44.593Z,6.90
2023-05-05T17:07:11.049Z,6.91
2023-05-05T17:09:39.782Z,6.70
2023-05-05T17:12:06.281Z,6.63
2023-05-05T17:14:33.571Z,6.50
2023-05-05T17:17:00.077Z,6.40
2023-05-05T17:19:26.750Z,6.28
2023-05-05T17:21:54.216Z,6.48
2023-05-05T17:24:20.820Z,6.43
2023-05-05T17:26:47.174Z,6.50
2023-05-05T17:29:14.212Z,6.31
2023-05-05T17:31:41.709Z,6.17
2023-05-05T17:34:08.093Z,6.23
2023-05-05T17:36:35.960Z,6.26
2023-05-05T17:39:02.460Z,6.28
2023-05-05T17:41:28.916Z,6.28
2023-05-05T17:43:55.702Z,6.23
2023-05-05T17:46:22.220Z,6.27
2023-05-05T17:48:48.662Z,6.26
2023-05-05T17:51:15.088Z,7.06
2023-05-05T17:53:43.076Z,6.89
2023-05-05T17:56:09.403Z,6.69
2023-05-05T17:58:35.760Z,6.40
2023-05-05T18:01:02.222Z,6.39
2023-05-05T18:03:28.800Z,6.26
2023-05-05T18:05:55.289Z,6.15
2023-05-05T18:08:22.481Z,6.15
2023-05-05T18:10:48.910Z,5.99
2023-05-05T18:13:15.464Z,6.03
2023-05-05T18:15:41.933Z,6.06
2023-05-05T18:18:08.337Z,6.00
2023-05-05T18:20:35.133Z,5.98
2023-05-05T18:23:01.850Z,5.87
2023-05-05T18:25:28.310Z,5.93
2023-05-05T18:27:54.739Z,5.83
2023-05-05T18:30:21.300Z,5.80
2023-05-05T18:32:48.706Z,5.79
2023-05-05T18:35:15.190Z,5.91
2023-05-05T18:37:42.273Z,5.73
2023-05-05T18:40:09.980Z,5.80
2023-05-05T18:42:36.315Z,5.80
2023-05-05T18:45:11.903Z,5.81
2023-05-05T18:47:39.218Z,5.69
2023-05-05T18:50:06.080Z,5.68
2023-05-05T18:52:32.870Z,5.65
2023-05-05T18:54:59.722Z,5.71
2023-05-05T18:57:27.204Z,5.73
2023-05-05T18:59:53.676Z,5.75
2023-05-05T19:02:20.167Z,5.70
2023-05-05T19:04:46.552Z,5.63
2023-05-05T19:07:20.971Z,5.65
2023-05-05T19:09:54.216Z,5.75
2023-05-05T19:12:20.595Z,5.65
2023-05-05T19:14:46.919Z,5.71
2023-05-05T19:17:13.280Z,5.74
2023-05-05T19:19:39.624Z,5.64
2023-05-05T19:22:06.091Z,5.70
2023-05-05T19:24:39.794Z,5.74
2023-05-05T19:27:08.175Z,5.65
2023-05-05T19:29:34.668Z,5.71
2023-05-05T19:32:01.203Z,5.66
2023-05-05T19:34:27.590Z,5.64
2023-05-05T19:36:53.916Z,5.68
2023-05-05T19:39:20.234Z,5.59
2023-05-05T19:41:46.668Z,5.61
2023-05-05T19:44:13.123Z,5.58
2023-05-05T19:46:39.514Z,5.60
2023-05-05T19:49:06.203Z,5.68
2023-05-05T19:51:32.552Z,5.68
2023-05-05T19:53:59.444Z,5.62
2023-05-05T19:56:25.956Z,5.56
2023-05-05T19:58:56.422Z,5.57
2023-05-05T20:01:22.878Z,5.59
2023-05-05T20:03:49.509Z,5.55
2023-05-05T20:06:16.143Z,5.62
2023-05-05T20:08:42.506Z,5.59
2023-05-05T20:11:08.904Z,5.70
2023-05-05T20:13:36.863Z,5.61
2023-05-05T20:16:03.216Z,5.60
2023-05-05T20:18:29.683Z,5.62
2023-05-05T20:20:56.289Z,5.52
2023-05-05T20:23:22.644Z,5.52
2023-05-05T20:25:49.059Z,5.52
2023-05-05T20:28:15.408Z,5.47
2023-05-05T20:30:41.804Z,5.50
2023-05-05T20:33:08.221Z,5.45
2023-05-05T20:35:34.690Z,5.49
2023-05-05T20:38:03.538Z,5.48
2023-05-05T20:40:30.384Z,5.47
2023-05-05T20:42:57.018Z,5.48
2023-05-05T20:45:24.025Z,5.52
2023-05-05T20:47:50.548Z,5.49
2023-05-05T20:50:20.214Z,5.49
2023-05-05T20:52:47.082Z,5.52
2023-05-05T20:55:13.507Z,5.46
2023-05-05T20:57:39.831Z,5.42
2023-05-05T21:00:06.643Z,5.35
2023-05-05T21:02:33.181Z,5.34
2023-05-05T21:05:02.807Z,5.36
2023-05-05T21:07:31.065Z,5.36
2023-05-05T21:09:57.473Z,5.38
2023-05-05T21:12:23.892Z,5.42
2023-05-05T21:14:50.221Z,5.43
2023-05-05T21:17:16.662Z,5.42
2023-05-05T21:19:43.012Z,5.39
2023-05-05T21:22:09.342Z,5.42
2023-05-05T21:24:35.746Z,5.44
2023-05-05T21:27:02.055Z,5.41
2023-05-05T21:29:28.426Z,5.40
2023-05-05T21:31:54.908Z,5.34
2023-05-05T21:34:21.312Z,5.36
2023-05-05T21:36:47.658Z,5.38
2023-05-05T21:39:14.186Z,5.39
2023-05-05T21:41:40.611Z,5.36
2023-05-05T21:44:07.058Z,5.43
2023-05-05T21:46:33.500Z,5.47
2023-05-05T21:48:59.906Z,5.40
2023-05-05T21:51:27.240Z,5.42
2023-05-05T21:53:53.644Z,5.40
2023-05-05T21:56:20.189Z,5.37
2023-05-05T21:58:46.521Z,5.33
2023-05-05T22:01:12.940Z,5.32
2023-05-05T22:03:39.360Z,5.38
2023-05-05T22:06:05.941Z,5.36
2023-05-05T22:08:32.299Z,5.37
2023-05-05T22:10:58.623Z,5.39
2023-05-05T22:13:24.977Z,5.43
2023-05-05T22:15:51.613Z,5.38
2023-05-05T22:18:18.031Z,5.41
2023-05-05T22:20:44.446Z,5.41
2023-05-05T22:23:11.381Z,5.42
2023-05-05T22:25:37.721Z,5.44
2023-05-05T22:28:04.293Z,5.40
2023-05-05T22:30:32.800Z,5.38
2023-05-05T22:32:59.137Z,5.36
2023-05-05T22:35:25.493Z,5.34
2023-05-05T22:37:51.939Z,5.33
2023-05-05T22:40:18.260Z,5.29
2023-05-05T22:42:44.629Z,5.29
2023-05-05T22:45:11.353Z,5.27
2023-05-05T22:47:37.928Z,5.31
2023-05-05T22:50:04.465Z,5.32
2023-05-05T22:52:30.842Z,5.27
2023-05-05T22:54:57.184Z,5.25
2023-05-05T22:57:23.575Z,5.25
2023-05-05T22:59:50.016Z,5.19
2023-05-05T23:02:16.384Z,5.19
2023-05-05T23:04:43.488Z,5.18
2023-05-05T23:07:10.841Z,5.14
2023-05-05T23:09:37.221Z,5.15
2023-05-05T23:12:03.659Z,5.14
2023-05-05T23:14:30.036Z,5.11
2023-05-05T23:16:56.483Z,5.10
2023-05-05T23:19:24.097Z,5.09
2023-05-05T23:21:53.553Z,5.06
2023-05-05T23:24:20.588Z,5.11
2023-05-05T23:26:46.892Z,5.07
2023-05-05T23:29:13.333Z,5.10
2023-05-05T23:31:39.895Z,5.06
2023-05-05T23:34:06.269Z,5.02
2023-05-05T23:36:32.803Z,4.95
2023-05-05T23:38:59.274Z,4.94
2023-05-05T23:41:25.583Z,4.93
2023-05-05T23:43:51.952Z,4.97
2023-05-05T23:46:18.408Z,4.99
2023-05-05T23:48:44.857Z,4.84
2023-05-05T23:51:11.211Z,4.81
2023-05-05T23:53:37.522Z,4.80
2023-05-05T23:56:03.903Z,4.72
2023-05-05T23:58:30.363Z,4.68
